Prachin Buri, Thailand
Current Conditions -  °F | °C
As of 2:00 PM on Saturday 29 Nov 2014 (Local Time) from VTBS Reporting Station
Broken Clouds Broken Clouds  
Wind Chill: 90°   Ceiling: 30000
Heat Index: 96°   Visibility: 6mi
Dew Point: 72°   Wind: 9mph
Humidity: 55%   Direction: 210°SSW
Pressure: 29.74"   Gusts: NA
Location:  14.05°N, 101.38°E
Report Text: VTBS 290700Z 21008KT 160V260 9999 FEW020CB SCT035 BKN300 32/22 Q1007 NOSIG
Loading
Personal Weather Stations






























Interactive Weather Map New forecast layout! Learn more

10-Day Weather Forecast

Advertisements
Track Severe Weather on mobile